Time;durP1;ratioP1;P1;durP2;ratioP2;P2;SDS_P1;SDS_P2;PMS_P1;PMS_P2;Temp;Humidity;BMP_temperature;BMP_pressure;BME280_temperature;BME280_humidity;BME280_pressure;Samples;Min_cycle;Max_cycle;Signal;HPM_P1;HPM_P2
2022/07/21 00:01:21;;;;;;;12.27;4.85;;;21.50;99.90;;;;;;5074603;28;20047;-65
2022/07/21 00:03:46;;;;;;;7.68;4.57;;;21.40;99.90;;;;;;5074410;28;20102;-65
2022/07/21 00:06:12;;;;;;;8.57;4.65;;;21.50;99.90;;;;;;5074475;28;20048;-65
2022/07/21 00:08:37;;;;;;;14.93;4.75;;;21.50;99.90;;;;;;5074004;28;20040;-65
2022/07/21 00:11:03;;;;;;;12.32;4.97;;;21.50;99.90;;;;;;5073689;28;20051;-65
2022/07/21 00:13:29;;;;;;;10.55;4.70;;;21.40;99.90;;;;;;5074374;28;20076;-65
2022/07/21 00:15:55;;;;;;;8.95;4.93;;;21.50;99.90;;;;;;5074503;28;20039;-65
2022/07/21 00:18:21;;;;;;;7.35;4.22;;;21.50;99.90;;;;;;5074143;28;20032;-65
2022/07/21 00:20:47;;;;;;;10.90;5.75;;;21.60;99.90;;;;;;5074238;28;20036;-65
2022/07/21 00:23:13;;;;;;;15.52;6.07;;;21.50;99.90;;;;;;5074171;28;20066;-65
2022/07/21 00:25:38;;;;;;;11.38;5.28;;;21.40;99.90;;;;;;5073938;28;20505;-65
2022/07/21 00:28:05;;;;;;;10.80;4.78;;;21.40;99.90;;;;;;5073873;28;20056;-65
2022/07/21 00:30:32;;;;;;;12.05;5.15;;;21.40;99.90;;;;;;5073943;28;20049;-65
2022/07/21 00:32:58;;;;;;;9.05;5.97;;;21.40;99.90;;;;;;5074313;28;20047;-65
2022/07/21 00:35:23;;;;;;;9.63;5.57;;;21.30;99.90;;;;;;5074017;28;20119;-65
2022/07/21 00:37:49;;;;;;;12.25;5.32;;;21.30;99.90;;;;;;5073978;28;20115;-65
2022/07/21 00:40:18;;;;;;;17.58;5.40;;;21.40;99.90;;;;;;5072737;28;20475;-65
2022/07/21 00:42:44;;;;;;;11.90;5.88;;;21.40;99.90;;;;;;5073912;28;20040;-65
2022/07/21 00:45:11;;;;;;;8.77;5.32;;;21.40;99.90;;;;;;5074054;28;20037;-65
2022/07/21 00:47:37;;;;;;;13.85;5.78;;;21.30;99.90;;;;;;5073841;28;20036;-65
2022/07/21 00:50:09;;;;;;;8.15;5.55;;;21.30;99.90;;;;;;5072488;28;20058;-65
2022/07/21 00:52:35;;;;;;;7.22;5.38;;;21.30;99.90;;;;;;5073808;28;20087;-65
2022/07/21 00:55:01;;;;;;;11.48;6.05;;;21.30;99.90;;;;;;5073814;28;20063;-65
2022/07/21 00:57:27;;;;;;;15.68;6.20;;;21.20;99.90;;;;;;5073837;28;20032;-65
2022/07/21 00:59:53;;;;;;;11.20;6.70;;;21.20;99.90;;;;;;5072613;28;20479;-65
2022/07/21 01:02:19;;;;;;;11.00;6.97;;;21.20;99.90;;;;;;5073684;28;20043;-65
2022/07/21 01:04:45;;;;;;;19.02;7.88;;;21.10;99.90;;;;;;5072291;28;20462;-65
2022/07/21 01:07:11;;;;;;;14.38;7.80;;;21.10;99.90;;;;;;5073659;28;20044;-65
2022/07/21 01:09:36;;;;;;;16.05;7.18;;;20.90;99.90;;;;;;5073629;28;20041;-65
2022/07/21 01:12:03;;;;;;;17.88;9.00;;;20.90;99.90;;;;;;5076669;28;20036;-65
2022/07/21 01:14:29;;;;;;;15.77;8.95;;;20.80;99.90;;;;;;5078158;28;20111;-65
2022/07/21 01:16:55;;;;;;;16.15;8.55;;;20.80;99.90;;;;;;5077770;28;20117;-65
2022/07/21 01:19:20;;;;;;;15.27;9.25;;;20.60;99.90;;;;;;5076285;28;20409;-66
2022/07/21 01:21:48;;;;;;;12.40;8.48;;;20.60;99.90;;;;;;5076348;28;20093;-66
2022/07/21 01:24:14;;;;;;;17.40;9.50;;;20.50;99.90;;;;;;5077652;28;20390;-66
2022/07/21 01:26:43;;;;;;;14.18;9.80;;;20.50;99.90;;;;;;5077522;28;20447;-66
2022/07/21 01:29:10;;;;;;;19.70;9.55;;;20.50;99.90;;;;;;5077599;28;20052;-66
2022/07/21 01:31:37;;;;;;;17.58;9.98;;;20.40;99.90;;;;;;5076426;28;20425;-66
2022/07/21 01:34:03;;;;;;;14.23;8.90;;;20.30;99.90;;;;;;5077409;28;20471;-66
2022/07/21 01:36:28;;;;;;;15.85;9.57;;;20.40;99.90;;;;;;5076140;28;20036;-67
2022/07/21 01:41:38;;;;;;;15.40;10.20;;;20.20;99.90;;;;;;5077522;28;20097;-65
2022/07/21 01:44:06;;;;;;;18.52;10.45;;;20.30;99.90;;;;;;5077159;28;20032;-66
2022/07/21 01:46:34;;;;;;;16.55;10.25;;;20.20;99.90;;;;;;5077116;28;20032;-66
2022/07/21 01:49:00;;;;;;;12.02;8.93;;;20.20;99.90;;;;;;5077103;28;20041;-65
2022/07/21 01:51:26;;;;;;;16.02;9.95;;;20.30;99.90;;;;;;5076956;28;20070;-66
2022/07/21 01:53:53;;;;;;;19.73;9.95;;;20.20;99.90;;;;;;5077084;28;20150;-65
2022/07/21 01:56:21;;;;;;;18.48;10.80;;;20.20;99.90;;;;;;5077030;28;20036;-66
2022/07/21 01:58:48;;;;;;;18.90;9.90;;;20.20;99.90;;;;;;5076968;28;20036;-66
2022/07/21 02:01:16;;;;;;;16.60;10.52;;;20.30;99.90;;;;;;5076842;28;20039;-66
2022/07/21 02:03:43;;;;;;;23.92;12.32;;;20.20;99.90;;;;;;5075467;28;20039;-66
2022/07/21 02:06:09;;;;;;;16.02;10.23;;;20.20;99.90;;;;;;5076518;28;20039;-66
2022/07/21 02:08:35;;;;;;;21.60;11.85;;;20.10;99.90;;;;;;5076681;28;20051;-66
2022/07/21 02:11:01;;;;;;;20.58;11.38;;;20.20;99.90;;;;;;5076538;28;20513;-66
2022/07/21 02:13:27;;;;;;;14.60;10.38;;;20.20;99.90;;;;;;5076609;28;20043;-66
2022/07/21 02:15:52;;;;;;;15.88;10.13;;;20.10;99.90;;;;;;5076533;28;20123;-66
2022/07/21 02:18:19;;;;;;;16.58;10.40;;;20.10;99.90;;;;;;5076643;28;20429;-66
2022/07/21 02:20:47;;;;;;;17.00;11.15;;;20.30;99.90;;;;;;5076372;28;20470;-65
2022/07/21 02:23:14;;;;;;;18.20;10.65;;;20.30;99.90;;;;;;5076259;28;20391;-65
2022/07/21 02:25:40;;;;;;;17.13;11.13;;;20.20;99.90;;;;;;5076386;28;20051;-65
2022/07/21 02:28:06;;;;;;;14.73;10.70;;;20.40;99.90;;;;;;5076107;28;20044;-65
2022/07/21 02:30:31;;;;;;;16.30;10.77;;;20.30;99.90;;;;;;5076263;28;20078;-66
2022/07/21 02:32:57;;;;;;;23.35;11.27;;;20.20;99.90;;;;;;5076292;28;20029;-65
2022/07/21 02:35:23;;;;;;;17.15;11.25;;;20.30;99.90;;;;;;5074864;28;20127;-66
2022/07/21 02:37:49;;;;;;;17.90;11.98;;;20.30;99.90;;;;;;5076287;28;20502;-65
2022/07/21 02:40:14;;;;;;;21.45;11.15;;;20.20;99.90;;;;;;5076019;28;20040;-66
2022/07/21 02:42:40;;;;;;;14.02;11.82;;;20.10;99.90;;;;;;5076127;28;20040;-65
2022/07/21 02:45:08;;;;;;;16.65;12.00;;;20.10;99.90;;;;;;5075943;28;20125;-65
2022/07/21 02:47:51;;;;;;;19.13;11.70;;;20.20;99.90;;;;;;5075861;28;20479;-65
2022/07/21 02:50:17;;;;;;;18.05;11.98;;;20.10;99.90;;;;;;5076002;28;20044;-66
2022/07/21 02:52:43;;;;;;;15.82;12.43;;;20.20;99.90;;;;;;5076366;28;20071;-66
2022/07/21 02:55:09;;;;;;;19.55;12.15;;;20.10;99.90;;;;;;5075979;28;20063;-65
2022/07/21 02:57:35;;;;;;;17.00;12.18;;;20.00;99.90;;;;;;5074610;28;20477;-65
2022/07/21 03:00:01;;;;;;;17.80;12.40;;;20.10;99.90;;;;;;5075664;28;20434;-65
2022/07/21 03:02:26;;;;;;;17.02;12.35;;;20.10;99.90;;;;;;5075835;28;20033;-65
2022/07/21 03:04:52;;;;;;;17.70;12.75;;;19.90;99.90;;;;;;5075776;28;20040;-65
2022/07/21 03:07:18;;;;;;;16.33;12.93;;;20.00;99.90;;;;;;5075486;28;20040;-65
2022/07/21 03:09:43;;;;;;;17.95;12.80;;;19.90;99.90;;;;;;5075569;28;20517;-65
2022/07/21 03:12:09;;;;;;;15.07;12.77;;;19.80;99.90;;;;;;5074334;28;20044;-66
2022/07/21 03:14:34;;;;;;;17.42;13.23;;;20.00;99.90;;;;;;5075537;28;20040;-65
2022/07/21 03:17:02;;;;;;;20.27;14.85;;;20.00;99.90;;;;;;5074293;28;20047;-65
2022/07/21 03:19:28;;;;;;;21.25;15.20;;;19.80;99.90;;;;;;5075381;28;20052;-65
2022/07/21 03:21:53;;;;;;;18.63;13.18;;;19.90;99.90;;;;;;5075501;28;20439;-65
2022/07/21 03:24:19;;;;;;;17.63;14.00;;;19.80;99.90;;;;;;5075467;28;20486;-65
2022/07/21 03:26:45;;;;;;;18.90;14.15;;;19.80;99.90;;;;;;5074863;28;20035;-63
2022/07/21 03:29:10;;;;;;;16.83;12.68;;;19.90;99.90;;;;;;5075217;28;20479;-65
2022/07/21 03:31:36;;;;;;;19.00;14.48;;;20.00;99.90;;;;;;5075231;28;20482;-65
2022/07/21 03:34:02;;;;;;;22.48;14.93;;;19.90;99.90;;;;;;5074333;28;20052;-65
2022/07/21 03:36:28;;;;;;;20.90;14.82;;;20.00;99.90;;;;;;5074995;28;20110;-65
2022/07/21 03:38:53;;;;;;;17.52;14.00;;;19.90;99.90;;;;;;5075031;28;20086;-65
2022/07/21 03:41:19;;;;;;;23.60;15.52;;;19.90;99.90;;;;;;5074933;28;20119;-65
2022/07/21 03:43:44;;;;;;;18.98;14.10;;;19.80;99.90;;;;;;5074926;28;20033;-65
2022/07/21 03:46:10;;;;;;;21.35;14.90;;;19.80;99.90;;;;;;5074966;28;20090;-65
2022/07/21 03:48:36;;;;;;;16.08;13.27;;;20.00;99.90;;;;;;5074928;28;20506;-65
2022/07/21 03:51:01;;;;;;;17.60;14.50;;;20.00;99.90;;;;;;5074650;28;20052;-66
2022/07/21 03:53:27;;;;;;;22.92;16.08;;;19.90;99.90;;;;;;5074794;28;20055;-66
2022/07/21 03:55:52;;;;;;;20.63;15.48;;;19.90;99.90;;;;;;5073415;28;20131;-65
2022/07/21 03:58:18;;;;;;;23.80;16.10;;;20.00;99.90;;;;;;5074362;28;20072;-66
2022/07/21 04:00:45;;;;;;;19.90;15.85;;;19.90;99.90;;;;;;5074635;28;20039;-66
2022/07/21 04:03:11;;;;;;;19.98;15.77;;;20.10;99.90;;;;;;5074296;28;20051;-65
2022/07/21 04:05:39;;;;;;;19.83;15.55;;;20.00;99.90;;;;;;5074591;28;20064;-65
2022/07/21 04:08:05;;;;;;;19.17;15.27;;;20.00;99.90;;;;;;5074391;28;20040;-66
2022/07/21 04:10:33;;;;;;;21.95;16.77;;;20.00;99.90;;;;;;5074326;28;20460;-65
2022/07/21 04:13:01;;;;;;;22.48;16.45;;;19.90;99.90;;;;;;5074513;28;20067;-66
2022/07/21 04:15:27;;;;;;;19.92;15.02;;;19.80;99.90;;;;;;5074426;28;20036;-67
2022/07/21 04:17:53;;;;;;;23.90;16.63;;;19.80;99.90;;;;;;5074283;28;20040;-65
2022/07/21 04:20:19;;;;;;;20.58;17.27;;;19.70;99.90;;;;;;5074207;28;20463;-65
2022/07/21 04:22:46;;;;;;;20.45;17.15;;;19.80;99.90;;;;;;5073466;28;20036;-66
2022/07/21 04:25:13;;;;;;;19.77;16.77;;;19.70;99.90;;;;;;5074177;28;20048;-66
2022/07/21 04:27:40;;;;;;;21.73;16.70;;;19.70;99.90;;;;;;5073989;28;20045;-65
2022/07/21 04:30:07;;;;;;;19.67;17.27;;;19.70;99.90;;;;;;5074115;28;20047;-65
2022/07/21 04:32:33;;;;;;;21.52;17.13;;;19.80;99.90;;;;;;5074067;28;20123;-65
2022/07/21 04:34:58;;;;;;;21.98;18.75;;;19.70;99.90;;;;;;5074084;28;20139;-65
2022/07/21 04:37:24;;;;;;;21.65;17.50;;;19.80;99.90;;;;;;5073983;28;20115;-65
2022/07/21 04:39:50;;;;;;;21.83;17.63;;;19.70;99.90;;;;;;5073756;28;20390;-66
2022/07/21 04:42:16;;;;;;;22.27;17.17;;;19.80;99.90;;;;;;5073796;28;20040;-66
2022/07/21 04:44:41;;;;;;;20.83;17.17;;;19.70;99.90;;;;;;5073986;28;20051;-65
2022/07/21 04:47:07;;;;;;;23.42;16.60;;;19.70;99.90;;;;;;5073861;28;20115;-64
2022/07/21 04:49:33;;;;;;;20.23;17.88;;;19.80;99.90;;;;;;5073808;28;20394;-65
2022/07/21 04:51:58;;;;;;;24.17;18.55;;;19.80;99.90;;;;;;5073880;28;20036;-66
2022/07/21 04:54:26;;;;;;;21.50;18.88;;;19.90;99.90;;;;;;5073604;28;20470;-65
2022/07/21 04:56:52;;;;;;;23.58;19.65;;;19.90;99.90;;;;;;5073745;28;20097;-65
2022/07/21 04:59:18;;;;;;;26.05;19.90;;;19.80;99.90;;;;;;5073561;28;20040;-65
2022/07/21 05:01:43;;;;;;;25.23;20.27;;;19.70;99.90;;;;;;5073792;28;20040;-66
2022/07/21 05:04:09;;;;;;;26.67;22.42;;;19.80;99.90;;;;;;5073691;28;20051;-66
2022/07/21 05:06:35;;;;;;;25.50;22.45;;;20.00;99.90;;;;;;5073672;28;20040;-65
2022/07/21 05:09:00;;;;;;;30.42;24.40;;;20.00;99.90;;;;;;5073584;28;20033;-65
2022/07/21 05:11:26;;;;;;;28.15;24.10;;;20.00;99.90;;;;;;5073472;28;20467;-65
2022/07/21 05:13:52;;;;;;;25.55;22.08;;;20.10;99.90;;;;;;5073717;28;20082;-65
2022/07/21 05:16:18;;;;;;;26.50;21.95;;;20.10;99.90;;;;;;5073584;28;20033;-65
2022/07/21 05:18:43;;;;;;;25.48;20.73;;;20.20;99.90;;;;;;5073629;28;20037;-66
2022/07/21 05:21:09;;;;;;;23.60;20.88;;;20.30;99.90;;;;;;5073696;28;20115;-65
2022/07/21 05:23:35;;;;;;;25.02;21.55;;;20.20;99.90;;;;;;5073255;28;20033;-66
2022/07/21 05:26:00;;;;;;;24.92;20.65;;;20.30;99.90;;;;;;5073531;28;20033;-65
2022/07/21 05:28:30;;;;;;;25.58;22.70;;;20.30;99.90;;;;;;5073328;28;20403;-66
2022/07/21 05:30:56;;;;;;;26.88;21.10;;;20.20;99.90;;;;;;5073470;28;20457;-65
2022/07/21 05:33:21;;;;;;;22.10;19.15;;;20.10;99.90;;;;;;5073513;28;20115;-66
2022/07/21 05:35:47;;;;;;;22.92;20.27;;;20.00;99.90;;;;;;5073335;28;20040;-66
2022/07/21 05:38:13;;;;;;;22.38;20.10;;;20.30;99.90;;;;;;5073162;28;20036;-66
2022/07/21 05:40:39;;;;;;;24.95;20.55;;;20.20;99.90;;;;;;5073161;28;20501;-66
2022/07/21 05:43:05;;;;;;;25.02;21.33;;;20.20;99.90;;;;;;5073438;28;20037;-66
2022/07/21 05:45:30;;;;;;;30.65;21.98;;;20.20;99.90;;;;;;5073296;28;20383;-65
2022/07/21 05:47:56;;;;;;;28.17;21.25;;;20.10;99.90;;;;;;5073801;28;20040;-65
2022/07/21 05:50:22;;;;;;;26.58;21.00;;;20.30;99.90;;;;;;5073023;28;20044;-66
2022/07/21 05:52:47;;;;;;;24.83;20.65;;;20.20;99.90;;;;;;5073036;28;20067;-65
2022/07/21 05:55:13;;;;;;;22.35;19.73;;;20.10;99.90;;;;;;5072974;28;20093;-65
2022/07/21 05:57:39;;;;;;;21.25;18.95;;;20.20;99.90;;;;;;5075304;28;20063;-65
2022/07/21 06:00:06;;;;;;;25.77;20.52;;;20.10;99.90;;;;;;5076936;28;20383;-65
2022/07/21 06:02:32;;;;;;;22.75;17.98;;;20.10;99.90;;;;;;5077287;28;20399;-65
2022/07/21 06:04:58;;;;;;;21.02;18.75;;;20.30;99.90;;;;;;5076712;28;20078;-65
2022/07/21 06:07:25;;;;;;;23.63;19.83;;;20.20;99.90;;;;;;5076865;28;20041;-66
2022/07/21 06:09:50;;;;;;;23.83;19.77;;;20.30;99.90;;;;;;5076928;28;20044;-65
2022/07/21 06:12:16;;;;;;;25.90;18.50;;;20.20;99.90;;;;;;5076581;28;20040;-65
2022/07/21 06:14:43;;;;;;;22.45;19.70;;;20.10;99.90;;;;;;5076537;28;20383;-65
2022/07/21 06:17:09;;;;;;;21.48;17.75;;;20.40;99.90;;;;;;5076559;28;20036;-66
2022/07/21 06:19:35;;;;;;;22.88;19.50;;;20.20;99.90;;;;;;5075024;28;20039;-66
2022/07/21 06:22:02;;;;;;;24.35;21.67;;;20.20;99.90;;;;;;5075628;28;20040;-66
2022/07/21 06:24:28;;;;;;;20.17;17.95;;;20.40;99.90;;;;;;5076279;28;20048;-65
2022/07/21 06:26:55;;;;;;;21.95;17.33;;;20.30;99.90;;;;;;5076331;28;20036;-65
2022/07/21 06:29:22;;;;;;;21.38;18.75;;;20.30;99.90;;;;;;5076101;28;20498;-65
2022/07/21 06:31:48;;;;;;;20.48;18.33;;;20.40;99.90;;;;;;5075003;28;20071;-65
2022/07/21 06:34:13;;;;;;;21.10;18.65;;;20.30;99.90;;;;;;5076274;28;20398;-65
2022/07/21 06:36:39;;;;;;;21.40;18.10;;;20.30;99.90;;;;;;5076050;28;20047;-65
2022/07/21 06:39:05;;;;;;;22.08;19.70;;;20.40;99.90;;;;;;5076244;28;20064;-66
2022/07/21 06:41:31;;;;;;;21.60;18.25;;;20.40;99.90;;;;;;5076445;28;20032;-64
2022/07/21 06:43:57;;;;;;;23.13;17.33;;;20.10;99.90;;;;;;5076010;28;20435;-64
2022/07/21 06:46:23;;;;;;;22.33;19.98;;;20.20;99.90;;;;;;5075073;28;20141;-65
2022/07/21 06:48:48;;;;;;;21.50;17.95;;;20.10;99.90;;;;;;5075916;28;20379;-65
2022/07/21 06:51:14;;;;;;;21.58;18.08;;;20.20;99.90;;;;;;5074489;28;20042;-65
2022/07/21 06:53:42;;;;;;;26.45;19.48;;;20.10;99.90;;;;;;5075781;28;20155;-64
2022/07/21 06:56:07;;;;;;;24.87;19.10;;;20.10;99.90;;;;;;5076045;28;20047;-65
2022/07/21 06:58:34;;;;;;;29.33;20.23;;;20.10;99.90;;;;;;5075939;28;20040;-65
2022/07/21 07:00:59;;;;;;;24.50;21.25;;;20.20;99.90;;;;;;5075851;28;20048;-65
2022/07/21 07:03:25;;;;;;;23.33;20.88;;;20.30;99.90;;;;;;5075778;28;20045;-65
2022/07/21 07:05:51;;;;;;;22.58;20.27;;;20.30;99.90;;;;;;5075812;28;20047;-65
2022/07/21 07:08:17;;;;;;;23.40;20.80;;;20.30;99.90;;;;;;5074634;28;20475;-65
2022/07/21 07:10:44;;;;;;;22.75;20.35;;;20.20;99.90;;;;;;5075715;28;20094;-64
2022/07/21 07:13:10;;;;;;;27.45;22.70;;;20.30;99.90;;;;;;5075614;28;20064;-65
2022/07/21 07:15:36;;;;;;;26.65;22.00;;;20.40;99.90;;;;;;5075493;28;20561;-65
2022/07/21 07:18:01;;;;;;;26.55;22.80;;;20.40;99.90;;;;;;5075354;28;20131;-64
2022/07/21 07:20:27;;;;;;;27.75;23.90;;;20.20;99.90;;;;;;5075359;28;20040;-65
2022/07/21 07:22:53;;;;;;;27.63;22.85;;;20.30;99.90;;;;;;5075400;28;20471;-65
2022/07/21 07:25:19;;;;;;;26.55;23.85;;;20.40;99.90;;;;;;5075337;28;20102;-65
2022/07/21 07:27:47;;;;;;;30.15;25.30;;;20.30;99.90;;;;;;5074931;28;20059;-64
2022/07/21 07:30:14;;;;;;;25.80;23.10;;;20.30;99.90;;;;;;5075016;28;20074;-65
2022/07/21 07:32:40;;;;;;;29.55;24.90;;;20.40;99.90;;;;;;5074920;28;20471;-64
2022/07/21 07:35:10;;;;;;;28.65;25.52;;;20.40;99.90;;;;;;5075189;28;20143;-64
2022/07/21 07:37:37;;;;;;;27.75;24.95;;;20.50;99.90;;;;;;5074972;28;20036;-64
2022/07/21 07:40:06;;;;;;;26.05;23.60;;;20.50;99.90;;;;;;5074945;28;20044;-65
2022/07/21 07:42:31;;;;;;;27.08;24.25;;;20.40;99.90;;;;;;5075083;28;20078;-64
2022/07/21 07:44:57;;;;;;;29.50;24.55;;;20.40;99.90;;;;;;5074817;28;20502;-64
2022/07/21 07:47:23;;;;;;;25.83;23.20;;;20.50;99.90;;;;;;5074935;28;20437;-64
2022/07/21 07:49:50;;;;;;;26.50;23.95;;;20.50;99.90;;;;;;5074652;28;20080;-64
2022/07/21 07:52:16;;;;;;;26.58;23.88;;;20.60;99.90;;;;;;5074821;28;20032;-64
2022/07/21 07:54:42;;;;;;;25.40;22.75;;;20.60;99.90;;;;;;5074770;28;20120;-64
2022/07/21 07:57:07;;;;;;;27.70;23.20;;;20.60;99.90;;;;;;5073231;28;20506;-64
2022/07/21 07:59:33;;;;;;;25.13;21.77;;;20.70;99.90;;;;;;5074610;28;20040;-64
2022/07/21 08:01:58;;;;;;;22.88;20.50;;;20.60;99.90;;;;;;5074697;28;20074;-64
2022/07/21 08:04:24;;;;;;;24.40;21.45;;;20.60;99.90;;;;;;5074919;28;20364;-63
2022/07/21 08:06:50;;;;;;;23.00;20.80;;;20.60;99.90;;;;;;5074467;28;20040;-64
2022/07/21 08:09:16;;;;;;;23.15;20.85;;;20.70;99.90;;;;;;5074646;28;20080;-64
2022/07/21 08:11:43;;;;;;;25.70;21.25;;;20.70;99.90;;;;;;5074456;28;20044;-64
2022/07/21 08:14:09;;;;;;;23.73;21.40;;;20.70;99.90;;;;;;5073101;28;20066;-64
2022/07/21 08:16:35;;;;;;;23.90;21.27;;;20.70;99.90;;;;;;5073178;28;20066;-64
2022/07/21 08:19:00;;;;;;;25.15;22.05;;;20.70;99.90;;;;;;5074340;28;20047;-64
2022/07/21 08:21:30;;;;;;;21.35;19.27;;;20.60;99.90;;;;;;5073930;28;20032;-64
2022/07/21 08:23:56;;;;;;;23.98;21.42;;;20.70;99.90;;;;;;5074239;28;20041;-65
2022/07/21 08:26:22;;;;;;;24.08;21.77;;;20.80;99.90;;;;;;5074184;28;20040;-65
2022/07/21 08:28:48;;;;;;;22.52;20.30;;;20.80;99.90;;;;;;5073794;28;20045;-64
2022/07/21 08:31:13;;;;;;;24.95;22.45;;;20.80;99.90;;;;;;5074001;28;20045;-64
2022/07/21 08:33:39;;;;;;;23.73;21.30;;;20.80;99.90;;;;;;5074141;28;20028;-64
2022/07/21 08:36:05;;;;;;;24.17;21.33;;;20.90;99.90;;;;;;5074115;28;20429;-65
2022/07/21 08:38:30;;;;;;;24.60;22.10;;;20.90;99.90;;;;;;5073906;28;20041;-65
2022/07/21 08:40:57;;;;;;;30.05;22.77;;;21.10;99.90;;;;;;5074056;28;20094;-64
2022/07/21 08:43:24;;;;;;;25.13;22.58;;;21.00;99.90;;;;;;5073689;28;20078;-65
2022/07/21 08:45:50;;;;;;;25.90;22.90;;;21.10;99.90;;;;;;5073993;28;20033;-65
2022/07/21 08:48:21;;;;;;;24.38;21.67;;;21.20;99.90;;;;;;5073935;28;20151;-64
2022/07/21 08:50:47;;;;;;;25.02;22.50;;;21.20;99.90;;;;;;5073861;28;20032;-65
2022/07/21 08:53:13;;;;;;;26.52;22.27;;;21.30;99.90;;;;;;5072941;28;20501;-65
2022/07/21 08:55:41;;;;;;;25.45;22.98;;;21.30;99.90;;;;;;5073608;28;20032;-64
2022/07/21 08:58:12;;;;;;;27.70;24.58;;;21.30;99.90;;;;;;5073917;28;20043;-64
2022/07/21 09:00:40;;;;;;;32.28;26.30;;;21.40;99.90;;;;;;5073740;28;20097;-65
2022/07/21 09:03:22;;;;;;;26.80;23.88;;;21.50;99.90;;;;;;5073709;28;20127;-65
2022/07/21 09:06:07;;;;;;;28.40;25.10;;;21.50;99.90;;;;;;5073724;28;20036;-65
2022/07/21 09:08:36;;;;;;;31.33;25.83;;;21.50;99.90;;;;;;5072528;28;20044;-65
2022/07/21 09:11:12;;;;;;;27.20;24.40;;;21.50;99.90;;;;;;5073644;28;20098;-64
2022/07/21 09:13:39;;;;;;;28.02;25.02;;;21.50;99.90;;;;;;5073675;28;20033;-64
2022/07/21 09:16:05;;;;;;;29.27;25.95;;;21.50;99.90;;;;;;5073460;28;20040;-65
2022/07/21 09:18:31;;;;;;;31.58;25.65;;;21.50;99.90;;;;;;5073372;28;20131;-65
2022/07/21 09:20:58;;;;;;;30.90;27.65;;;21.50;99.90;;;;;;5073648;28;20124;-64
2022/07/21 09:23:25;;;;;;;31.45;28.23;;;21.60;99.90;;;;;;5073609;28;20037;-65
2022/07/21 09:25:53;;;;;;;32.30;28.90;;;21.50;99.90;;;;;;5073553;28;20123;-65
2022/07/21 09:28:27;;;;;;;33.80;30.30;;;21.60;99.90;;;;;;5073116;28;20048;-65
2022/07/21 09:31:06;;;;;;;33.08;29.55;;;21.60;99.90;;;;;;5073423;28;20048;-65
2022/07/21 09:33:33;;;;;;;33.33;29.83;;;21.60;99.90;;;;;;5076942;28;20082;-65
2022/07/21 09:36:11;;;;;;;33.00;29.60;;;21.70;99.90;;;;;;5077547;28;20421;-65
2022/07/21 09:38:56;;;;;;;34.50;30.90;;;21.60;99.90;;;;;;5077275;28;20072;-65
2022/07/21 09:41:24;;;;;;;39.28;32.95;;;21.80;99.90;;;;;;5077259;28;20113;-65
2022/07/21 09:43:53;;;;;;;37.42;33.55;;;21.70;99.90;;;;;;5077281;28;20036;-65
2022/07/21 09:46:24;;;;;;;38.63;34.58;;;21.80;99.90;;;;;;5077132;28;20394;-65
2022/07/21 09:48:52;;;;;;;41.17;35.35;;;21.80;99.90;;;;;;5077031;28;20044;-65
2022/07/21 09:51:19;;;;;;;38.20;33.95;;;21.90;99.90;;;;;;5076551;28;20047;-65
2022/07/21 09:53:53;;;;;;;42.45;36.50;;;22.00;99.90;;;;;;5076743;28;20506;-65
2022/07/21 09:56:20;;;;;;;39.13;34.95;;;22.30;99.90;;;;;;5076985;28;20065;-65
2022/07/21 09:58:48;;;;;;;39.40;34.50;;;22.50;99.90;;;;;;5077079;28;20039;-65
2022/07/21 10:01:14;;;;;;;40.80;35.20;;;22.60;99.90;;;;;;5075353;28;20052;-65
2022/07/21 10:03:42;;;;;;;36.10;32.13;;;22.70;99.90;;;;;;5076974;28;20048;-65
2022/07/21 10:06:08;;;;;;;36.05;32.35;;;23.00;99.90;;;;;;5076881;28;20056;-65
2022/07/21 10:08:36;;;;;;;41.65;35.13;;;23.40;99.90;;;;;;5076779;28;20049;-65
2022/07/21 10:11:02;;;;;;;40.08;35.83;;;23.80;99.90;;;;;;5076566;28;20041;-66
2022/07/21 10:13:28;;;;;;;42.35;35.72;;;23.90;99.90;;;;;;5076787;28;20043;-67
2022/07/21 10:15:54;;;;;;;37.35;33.45;;;23.90;99.90;;;;;;5076712;28;20040;-66
2022/07/21 10:18:24;;;;;;;39.10;34.97;;;24.00;99.90;;;;;;5076655;28;20037;-66
2022/07/21 10:20:57;;;;;;;39.55;34.53;;;23.90;99.90;;;;;;5076757;28;20150;-66
2022/07/21 10:23:36;;;;;;;39.28;35.20;;;24.10;99.90;;;;;;5076515;28;20051;-66
2022/07/21 10:26:05;;;;;;;38.17;34.10;;;23.90;99.90;;;;;;5076517;28;20040;-66
2022/07/21 10:28:31;;;;;;;39.10;34.90;;;23.90;99.90;;;;;;5076094;28;20633;-65
2022/07/21 10:30:58;;;;;;;37.83;34.05;;;23.90;99.90;;;;;;5076381;28;20070;-65
2022/07/21 10:34:01;;;;;;;37.25;33.35;;;23.90;99.90;;;;;;5076358;28;20111;-67
2022/07/21 10:36:26;;;;;;;38.15;34.17;;;23.80;99.90;;;;;;5034154;28;20037;-66
2022/07/21 10:39:23;;;;;;;32.88;29.38;;;23.80;99.90;;;;;;5034089;28;20053;-66
2022/07/21 10:41:59;;;;;;;30.30;27.08;;;23.80;99.90;;;;;;4956039;28;20079;-67
2022/07/21 10:44:27;;;;;;;33.63;30.23;;;23.80;99.90;;;;;;4955769;28;20051;-67
2022/07/21 10:47:08;;;;;;;29.73;26.73;;;23.70;99.90;;;;;;4955994;29;20059;-67
2022/07/21 10:49:43;;;;;;;30.13;27.02;;;23.70;99.90;;;;;;4955846;28;20051;-66
2022/07/21 10:52:38;;;;;;;30.70;27.35;;;23.70;99.90;;;;;;4955767;28;20098;-66
2022/07/21 10:55:09;;;;;;;32.65;29.05;;;23.80;99.90;;;;;;4955751;29;20055;-67
2022/07/21 10:57:37;;;;;;;31.33;28.20;;;23.70;99.90;;;;;;4955652;28;20075;-65
2022/07/21 11:00:27;;;;;;;29.08;25.98;;;23.60;99.90;;;;;;4955698;29;20050;-65
2022/07/21 11:02:55;;;;;;;26.88;23.27;;;23.60;99.90;;;;;;4955566;28;20442;-65
2022/07/21 11:05:21;;;;;;;31.95;28.73;;;23.50;99.90;;;;;;4955534;29;20058;-66
2022/07/21 11:08:19;;;;;;;28.13;25.42;;;23.50;99.90;;;;;;4955486;29;20043;-65
2022/07/21 11:10:52;;;;;;;28.40;25.50;;;23.60;99.90;;;;;;4992907;28;20459;-65
2022/07/21 11:13:22;;;;;;;24.48;21.67;;;23.70;99.90;;;;;;5013577;28;20104;-66
2022/07/21 11:15:57;;;;;;;28.67;24.60;;;24.10;99.90;;;;;;4997598;28;20172;-66
2022/07/21 11:18:25;;;;;;;29.17;26.15;;;24.50;99.90;;;;;;5049299;28;20048;-65
2022/07/21 11:21:15;;;;;;;26.60;23.73;;;24.70;99.90;;;;;;5075488;28;20048;-66
2022/07/21 11:23:49;;;;;;;29.25;26.17;;;24.90;99.90;;;;;;5075077;28;20040;-66
2022/07/21 11:26:17;;;;;;;23.80;21.35;;;24.90;99.90;;;;;;5075402;28;20116;-66
2022/07/21 11:28:44;;;;;;;21.92;18.92;;;25.30;99.90;;;;;;5074975;28;20052;-66
2022/07/21 11:31:15;;;;;;;24.95;21.85;;;25.50;99.90;;;;;;5075285;28;20072;-66
2022/07/21 11:33:43;;;;;;;22.33;20.08;;;25.40;99.90;;;;;;5075188;28;20075;-66
2022/07/21 11:36:09;;;;;;;22.85;20.55;;;25.20;99.90;;;;;;5074792;28;20025;-67
2022/07/21 11:38:34;;;;;;;16.83;15.20;;;25.50;99.90;;;;;;5075121;28;20379;-66
2022/07/21 11:41:19;;;;;;;20.67;18.00;;;25.60;99.90;;;;;;5074806;28;20068;-68
2022/07/21 11:43:46;;;;;;;20.17;18.05;;;26.20;99.90;;;;;;5075190;28;20112;-66
2022/07/21 11:46:13;;;;;;;15.45;13.90;;;26.40;99.90;;;;;;5075067;28;20089;-66
2022/07/21 11:48:39;;;;;;;14.65;12.13;;;26.30;99.90;;;;;;5073633;28;20566;-67
2022/07/21 11:51:06;;;;;;;12.98;11.68;;;26.60;99.90;;;;;;5075266;28;20079;-67
2022/07/21 11:53:32;;;;;;;18.33;16.27;;;27.00;99.90;;;;;;5074720;28;20045;-66
2022/07/21 11:55:58;;;;;;;12.00;10.85;;;27.20;99.90;;;;;;5074227;28;20036;-66
2022/07/21 11:58:24;;;;;;;16.20;14.50;;;27.40;99.90;;;;;;5074643;28;20463;-66
2022/07/21 12:01:04;;;;;;;14.98;13.43;;;26.90;99.90;;;;;;5074573;28;20044;-66
2022/07/21 12:03:30;;;;;;;14.98;13.63;;;26.60;99.90;;;;;;5074292;28;20522;-66
2022/07/21 12:05:56;;;;;;;14.88;13.27;;;26.50;99.90;;;;;;5074663;28;20068;-66
2022/07/21 12:08:23;;;;;;;13.05;11.77;;;26.50;99.90;;;;;;5074341;28;20528;-66
2022/07/21 12:10:49;;;;;;;12.18;11.07;;;26.60;99.90;;;;;;5074360;28;20552;-67
2022/07/21 12:13:14;;;;;;;10.90;9.73;;;26.80;99.90;;;;;;5074473;28;20127;-67
2022/07/21 12:15:41;;;;;;;12.20;10.60;;;26.90;99.90;;;;;;5074288;28;20032;-67
2022/07/21 12:18:17;;;;;;;10.20;9.27;;;27.30;99.90;;;;;;5074092;28;20471;-67
2022/07/21 12:20:44;;;;;;;9.90;8.93;;;27.60;99.90;;;;;;5074339;28;20044;-67
2022/07/21 12:23:20;;;;;;;9.80;8.40;;;28.30;99.90;;;;;;5073978;28;20540;-67
2022/07/21 12:25:46;;;;;;;7.38;6.68;;;28.50;99.90;;;;;;5072946;28;20055;-67
2022/07/21 12:28:12;;;;;;;9.95;8.95;;;28.50;99.90;;;;;;5073812;28;20056;-67
2022/07/21 12:30:44;;;;;;;9.98;8.57;;;28.40;99.90;;;;;;5074089;28;20044;-67
2022/07/21 12:33:10;;;;;;;8.25;7.50;;;28.40;99.90;;;;;;5074360;28;20044;-68